Jepson Prairie Reserve, California Weather observations

Data are for 10 minute period ending at time listed.
 Day   Time   Solar   Ave.   Ave.  Ave.  Vector  Max.   Baro.   Total    
  of    of     Rad.   Air    Rel.  Wind   Wind   Wind  Press.  Precip.   
Year   Day            Temp.  Hum.  Speed  Dir.   Gust                    
2016   (PST)  Kw/m2    F      %     mph   deg.    mph    mb.     in.     
-------------------------------------------------------------------------
 211   15:10   0.69  101.0    12   16.8   220    21.9   1004.7    0.00 
 211   15:20   0.66  100.5    11   18.1   216    22.6   1004.7    0.00 
 211   15:30   0.63  100.4    11   18.2   216    21.2   1004.7    0.00 
 211   15:40   0.60  100.5    13   16.9   218    22.5   1004.4    0.00 
 211   15:50   0.58  100.8    15   17.5   214    22.6   1004.4    0.00 
 211   16:00   0.55  100.0    16   17.9   211    22.1   1004.4    0.00 
 211   16:10   0.52   99.9    15   19.6   207    24.5   1004.4    0.00 
 211   16:20   0.49   99.7    14   20.2   213    24.0   1004.4    0.00 
 211   16:30   0.46   99.2    15   20.2   208    25.1   1004.1    0.00 
 211   16:40   0.43   98.9    16   19.6   208    24.5   1004.1    0.00 
 211   16:50   0.40   98.1    18   20.5   207    25.7   1004.1    0.00 
 211   17:00   0.37   97.1    20   21.8   211    26.7   1003.7    0.00 
 211   17:10   0.34   96.4    20   20.6   217    26.8   1003.7    0.00 
 211   17:20   0.29   95.9    21   20.0   222    24.6   1003.7    0.00 
 211   17:30   0.27   95.1    22   19.7   217    23.6   1003.7    0.00 
 211   17:40   0.24   94.0    21   19.4   220    25.1   1003.4    0.00 
 211   17:50   0.21   92.4    22   21.2   218    25.3   1003.4    0.00 
 211   18:00   0.18   91.3    23   19.2   216    24.3   1003.4    0.00 
 211   18:10   0.15   90.1    24   19.3   217    23.4   1003.4    0.00 
 211   18:20   0.13   89.6    24   19.0   211    23.6   1003.4    0.00 
 211   18:30   0.10   88.4    25   18.8   210    22.6   1003.4    0.00 
 211   18:40   0.07   87.4    26   18.1   215    23.8   1003.4    0.00 
 211   18:50   0.06   86.5    27   15.6   215    19.8   1003.7    0.00 
 211   19:00   0.03   85.6    28   14.7   206    20.0   1003.7    0.00 
 211   19:10   0.02   84.1    30   15.7   206    20.4   1003.7    0.00 
 211   19:20   0.01   82.1    34   15.7   209    19.1   1004.1    0.00 
 211   19:30   0.00   80.5    36   13.9   209    17.4   1004.1    0.00 
 211   19:40   0.00   79.2    36   14.0   208    17.1   1004.1    0.00 
 211   19:50   0.00   77.9    39   15.6   218    18.9   1004.1    0.00 
 211   20:00   0.00   76.3    42   16.1   209    19.6   1004.4    0.00 
 211   20:10   0.00   75.4    44   16.1   210    21.3   1004.4    0.00 
 211   20:20   0.00   74.7    46   16.3   213    20.1   1004.4    0.00 
 211   20:30   0.00   74.3    46   16.6   213    21.2   1004.7    0.00 
 211   20:40   0.00   73.2    48   14.9   214    18.7   1004.7    0.00 
 211   20:50   0.00   72.6    48   15.3   210    18.2   1004.7    0.00 
 211   21:00   0.00   72.0    49   14.6   209    18.8   1004.7    0.00 
 211   21:10   0.00   72.3    50   17.2   204    21.5   1005.1    0.00 
 211   21:20   0.00   72.2    50   17.5   206    21.6   1005.1    0.00 
 211   21:30   0.00   71.7    50   19.4   207    24.1   1004.7    0.00 
 211   21:40   0.00   71.1    51   18.3   203    22.5   1004.7    0.00 
 211   21:50   0.00   71.1    51   19.5   201    24.5   1004.7    0.00 
 211   22:00   0.00   70.9    51   18.3   202    24.1   1004.7    0.00 
 211   22:10   0.00   70.3    52   18.5   205    23.3   1004.4    0.00 
 211   22:20   0.00   69.8    53   20.7   204    25.7   1004.4    0.00 
 211   22:30   0.00   68.9    55   19.1   205    25.2   1004.4    0.00 
 211   22:40   0.00   68.3    57   18.5   205    22.7   1004.4    0.00 
 211   22:50   0.00   68.1    57   20.0   205    25.7   1004.4    0.00 
 211   23:00   0.00   68.2    57   20.1   204    23.6   1004.4    0.00 
 211   23:10   0.00   68.2    55   21.2   204    25.6   1004.4    0.00 
 211   23:20   0.00   68.1    55   21.1   205    25.9   1004.4    0.00 
 211   23:30   0.00   67.3    58   18.9   207    22.9   1004.4    0.00 
 211   23:40   0.00   67.0    58   20.3   204    25.3   1004.4    0.00 
 211   23:50   0.00   66.7    59   20.5   206    25.6   1004.4    0.00 
 212    0:00   0.00   67.0    58   19.8   208    24.0   1004.4    0.00 
 212    0:10   0.00   66.9    57   18.8   209    22.8   1004.4    0.00 
 212    0:20   0.00   66.7    58   18.1   215    22.9   1004.4    0.00 
 212    0:30   0.00   66.3    58   19.3   212    23.9   1004.1    0.00 
 212    0:40   0.00   65.8    59   17.8   209    23.0   1004.4    0.00 
 212    0:50   0.00   65.7    58   16.7   210    19.7   1004.4    0.00 
 212    1:00   0.00   65.5    59   17.8   212    20.8   1004.1    0.00 
 212    1:10   0.00   65.3    60   18.6   213    24.0   1004.1    0.00 
 212    1:20   0.00   65.1    61   16.0   215    20.8   1004.1    0.00 
 212    1:30   0.00   65.2    60   15.3   216    19.8   1004.1    0.00 
 212    1:40   0.00   65.3    60   16.1   213    21.0   1004.1    0.00 
 212    1:50   0.00   65.0    61   15.8   215    20.2   1003.7    0.00 
 212    2:00   0.00   64.0    64   15.2   221    18.7   1003.7    0.00 
 212    2:10   0.00   63.9    64   15.7   217    21.0   1003.7    0.00 
 212    2:20   0.00   63.9    64   16.3   217    21.3   1003.7    0.00 
 212    2:30   0.00   64.4    62   17.3   216    22.6   1003.7    0.00 
 212    2:40   0.00   63.6    64   17.0   218    21.3   1003.7    0.00 
 212    2:50   0.00   62.8    66   18.0   216    22.2   1003.7    0.00 
 212    3:00   0.00   62.2    68   16.5   216    20.7   1003.7    0.00 
 212    3:10   0.00   62.2    68   20.1   216    25.5   1003.4    0.00 
 212    3:20   0.00   62.4    67   20.0   218    23.6   1003.4    0.00 
 212    3:30   0.00   62.5    67   20.2   218    24.8   1003.4    0.00 
 212    3:40   0.00   62.2    67   19.5   216    23.8   1003.4    0.00 
 212    3:50   0.00   61.9    68   19.8   216    26.5   1003.4    0.00 
 212    4:00   0.00   61.1    69   17.9   209    24.1   1003.4    0.00 
 212    4:10   0.00   60.7    70   16.9   210    22.5   1003.4    0.00 
 212    4:20   0.00   61.0    69   19.9   213    26.9   1003.4    0.00 
 212    4:30   0.00   60.6    69   17.8   216    24.0   1003.7    0.00 
 212    4:40   0.00   60.8    68   18.2   216    22.5   1003.7    0.00 
 212    4:50   0.00   60.6    69   17.9   212    22.9   1003.7    0.00 
 212    5:00   0.00   60.8    68   19.7   216    24.9   1003.7    0.00 
 212    5:10   0.00   60.8    68   18.4   214    22.2   1004.1    0.00 
 212    5:20   0.01   60.3    70   16.2   214    20.5   1004.1    0.00 
 212    5:30   0.02   60.3    70   14.9   222    19.7   1004.4    0.00 
 212    5:40   0.05   60.5    70   14.3   227    18.2   1004.4    0.00 
 212    5:50   0.07   60.5    70   14.6   234    20.3   1004.7    0.00 
 212    6:00   0.10   61.0    70   16.4   230    21.1   1004.7    0.00 
 212    6:10   0.12   61.4    70   16.7   221    21.0   1004.7    0.00 
 212    6:20   0.15   62.3    68   17.3   219    22.1   1004.7    0.00 
 212    6:30   0.18   63.2    66   18.0   217    22.4   1005.1    0.00 
 212    6:40   0.21   64.0    65   19.8   219    23.2   1005.1    0.00 
 212    6:50   0.24   64.5    64   18.7   222    24.3   1005.4    0.00 
 212    7:00   0.28   66.3    60   17.4   222    22.5   1005.4    0.00 
 212    7:10   0.31   67.1    59   17.3   221    22.3   1005.4    0.00 
 212    7:20   0.34   67.8    58   18.5   221    22.4   1005.8    0.00 
 212    7:30   0.37   67.9    57   20.3   222    25.1   1005.8    0.00 
 212    7:40   0.40   69.2    55   17.3   222    21.9   1006.1    0.00 
 212    7:50   0.43   70.2    52   17.6   219    23.2   1006.1    0.00 
 212    8:00   0.47   70.8    50   19.6   218    24.0   1006.4    0.00 
 212    8:10   0.50   71.5    50   19.2   220    24.3   1006.4    0.00 
 212    8:20   0.53   72.8    49   18.0   217    22.4   1006.4    0.00 
 212    8:30   0.56   73.6    47   18.9   213    22.7   1006.4    0.00 
 212    8:40   0.58   74.1    46   17.6   217    22.0   1006.4    0.00 
 212    8:50   0.61   75.1    46   17.5   208    21.5   1006.4    0.00 
 212    9:00   0.64   75.8    44   17.5   206    22.0   1006.1    0.00 
 212    9:10   0.67   77.4    43   17.3   205    21.5   1006.1    0.00 
 212    9:20   0.69   77.7    41   19.1   202    22.7   1006.1    0.00 
 212    9:30   0.72   78.7    40   16.9   202    22.1   1006.4    0.00 
 212    9:40   0.74   79.7    39   18.1   200    22.2   1006.4    0.00 
 212    9:50   0.76   79.8    40   17.8   204    22.5   1006.4    0.00 
 212   10:00   0.78   81.3    37   15.0   210    20.5   1006.4    0.00 
 212   10:10   0.80   82.4    37   14.6   204    19.1   1006.4    0.00 
 212   10:20   0.82   82.1    38   15.6   206    19.2   1006.8    0.00 
 212   10:30   0.83   82.4    38   15.6   206    20.7   1006.4    0.00 
 212   10:40   0.85   83.0    39   17.3   205    22.3   1006.4    0.00 
 212   10:50   0.86   84.1    37   17.6   199    22.9   1006.4    0.00 
 212   11:00   0.87   85.1    33   18.2   202    22.6   1006.4    0.00 
 212   11:10   0.89   85.6    34   18.1   206    21.6   1006.4    0.00 
 212   11:20   0.89   86.9    33   17.0   206    21.1   1006.4    0.00 
 212   11:30   0.90   86.8    33   16.9   210    20.6   1006.4    0.00 
 212   11:40   0.91   88.7    29   16.6   205    21.0   1006.1    0.00 
 212   11:50   0.91   90.5    25   18.3   209    24.9   1006.1    0.00 
 212   12:00   0.92   90.8    23   20.1   211    25.4   1006.1    0.00 
 212   12:10   0.92   91.3    21   18.7   208    24.1   1005.8    0.00 
 212   12:20   0.92   91.6    21   17.9   217    21.8   1005.8    0.00 
 212   12:30   0.91   92.1    20   17.8   216    24.3   1005.8    0.00 
 212   12:40   0.91   92.4    20   19.2   220    23.4   1005.8    0.00 
 212   12:50   0.91   92.2    21   19.2   228    24.0   1005.8    0.00 
 212   13:00   0.91   92.4    19   21.0   218    24.9   1005.4    0.00 
 212   13:10   0.90   91.8    21   20.6   220    25.4   1005.4    0.00 
 212   13:20   0.89   92.4    21   18.9   228    24.3   1005.4    0.00 
 212   13:30   0.87   92.7    20   19.1   221    25.1   1005.4    0.00 
 212   13:40   0.86   92.5    20   20.8   223    26.1   1005.4    0.00 
 212   13:50   0.85   93.2    19   21.6   216    27.0   1005.1    0.00 
 212   14:00   0.83   93.9    18   22.4   219    27.8   1005.1    0.00 
 212   14:10   0.82   93.8    18   22.9   218    27.7   1005.1    0.00 
 212   14:20   0.80   93.5    18   22.5   220    27.9   1005.1    0.00 
 212   14:30   0.78   93.6    20   22.2   214    26.5   1005.1    0.00 
 212   14:40   0.76   93.6    22   20.5   209    26.6   1005.1    0.00 
 212   14:50   0.73   92.6    23   21.7   217    26.5   1005.1    0.00 
 212   15:00   0.71   92.5    25   19.5   222    24.1   1005.1    0.00 

Return to Jepson Prairie Reserve graphs page.


Western Regional Climate Center,wrcc@dri.edu